Time;durP1;ratioP1;P1;durP2;ratioP2;P2;SDS_P1;SDS_P2;PMS_P1;PMS_P2;Temp;Humidity;BMP_temperature;BMP_pressure;BME280_temperature;BME280_humidity;BME280_pressure;Samples;Min_cycle;Max_cycle;Signal;HPM_P1;HPM_P2
2021/08/01 00:00:25;;;;;;;;;;;;;;;25.09;56.71;98453.36;1872436;76;20101;-61
2021/08/01 00:03:00;;;;;;;;;;;;;;;25.06;56.81;98447.78;1892725;76;20207;-62
2021/08/01 00:05:35;;;;;;;;;;;;;;;25.04;57.00;98443.53;1873430;76;20453;-62
2021/08/01 00:08:16;;;;;;;;;;;;;;;25.02;57.14;98442.75;1892693;76;20121;-62
2021/08/01 00:10:53;;;;;;;;;;;;;;;25.07;57.15;98448.16;1892764;76;20096;-64
2021/08/01 00:13:28;;;;;;;;;;;;;;;25.05;57.29;98446.53;1892712;76;20097;-66
2021/08/01 00:16:03;;;;;;;;;;;;;;;24.99;57.51;98441.14;1873350;76;20097;-63
2021/08/01 00:18:57;;;;;;;;;;;;;;;24.92;57.72;98439.77;1892645;76;20211;-66
2021/08/01 00:21:32;;;;;;;;;;;;;;;24.90;57.89;98444.28;1873446;76;20212;-66
2021/08/01 00:24:07;;;;;;;;;;;;;;;24.88;57.95;98448.34;1873349;76;20094;-65
2021/08/01 00:26:42;;;;;;;;;;;;;;;24.91;58.05;98457.41;1873274;76;20208;-62
2021/08/01 00:29:16;;;;;;;;;;;;;;;24.89;58.05;98451.36;1873444;76;20204;-61
2021/08/01 00:31:52;;;;;;;;;;;;;;;24.86;58.09;98448.89;1892715;76;20101;-64
2021/08/01 00:34:28;;;;;;;;;;;;;;;24.85;58.20;98436.61;1837652;77;20104;-64
2021/08/01 00:37:03;;;;;;;;;;;;;;;24.86;58.19;98444.94;1873411;76;20259;-66
2021/08/01 00:39:37;;;;;;;;;;;;;;;24.85;58.25;98443.69;1873433;76;20172;-65
2021/08/01 00:42:12;;;;;;;;;;;;;;;24.79;58.45;98439.61;1892731;76;20208;-63
2021/08/01 00:44:46;;;;;;;;;;;;;;;24.76;58.67;98448.17;1892759;76;20310;-64
2021/08/01 00:47:22;;;;;;;;;;;;;;;24.80;58.59;98443.94;1873364;76;20351;-64
2021/08/01 00:49:59;;;;;;;;;;;;;;;24.85;58.54;98448.49;1873337;76;20094;-60
2021/08/01 00:52:37;;;;;;;;;;;;;;;24.96;58.29;98449.23;1873436;76;20097;-61
2021/08/01 00:55:29;;;;;;;;;;;;;;;25.12;57.90;98445.26;1877219;75;20236;-64
2021/08/01 00:58:04;;;;;;;;;;;;;;;25.21;57.54;98445.22;1873421;76;20208;-61
2021/08/01 01:03:45;;;;;;;;;;;;;;;25.03;58.12;98445.77;1873449;76;20204;-57
2021/08/01 01:06:27;;;;;;;;;;;;;;;24.88;58.65;98448.34;1873230;76;20220;-61
2021/08/01 01:09:06;;;;;;;;;;;;;;;24.74;59.03;98446.93;1892699;76;20097;-62
2021/08/01 01:12:12;;;;;;;;;;;;;;;24.61;59.31;98441.48;1873266;76;20097;-66
2021/08/01 01:15:11;;;;;;;;;;;;;;;24.54;59.69;98436.62;1873189;76;20169;-64
2021/08/01 01:18:05;;;;;;;;;;;;;;;24.50;59.75;98439.02;1873369;76;20097;-64
2021/08/01 01:21:14;;;;;;;;;;;;;;;24.48;59.85;98437.81;1873400;76;20355;-64
2021/08/01 01:24:16;;;;;;;;;;;;;;;24.44;60.15;98434.91;1873396;76;20454;-63
2021/08/01 01:27:13;;;;;;;;;;;;;;;24.40;60.37;98438.19;1892724;76;20478;-64
2021/08/01 01:29:53;;;;;;;;;;;;;;;24.36;60.68;98432.69;1873327;76;20355;-62
2021/08/01 01:32:55;;;;;;;;;;;;;;;24.31;60.92;98434.72;1873265;76;20097;-64
2021/08/01 01:35:33;;;;;;;;;;;;;;;24.27;61.32;98423.94;1873469;76;20208;-65
2021/08/01 01:38:08;;;;;;;;;;;;;;;24.25;61.34;98424.04;1873348;76;20159;-61
2021/08/01 01:40:44;;;;;;;;;;;;;;;24.29;61.21;98435.26;1873157;76;20102;-61
2021/08/01 01:43:24;;;;;;;;;;;;;;;24.30;61.39;98429.52;1873265;76;20208;-63
2021/08/01 01:46:00;;;;;;;;;;;;;;;24.21;61.52;98428.23;1892711;76;20101;-62
2021/08/01 01:48:34;;;;;;;;;;;;;;;24.11;62.02;98427.02;1892815;76;20449;-63
2021/08/01 01:51:09;;;;;;;;;;;;;;;23.98;62.37;98425.02;1873498;76;20446;-63
2021/08/01 01:53:44;;;;;;;;;;;;;;;23.85;62.84;98417.38;1873334;76;20343;-61
2021/08/01 01:56:21;;;;;;;;;;;;;;;23.76;63.49;98412.12;1892748;76;20096;-60
2021/08/01 01:58:56;;;;;;;;;;;;;;;23.71;63.98;98409.29;1873533;76;20295;-60
2021/08/01 02:01:30;;;;;;;;;;;;;;;23.63;64.46;98397.83;1892746;76;20461;-69
2021/08/01 02:04:05;;;;;;;;;;;;;;;23.55;65.00;98404.80;1873465;76;20461;-66
2021/08/01 02:06:40;;;;;;;;;;;;;;;23.50;65.30;98404.66;1892750;76;20207;-65
2021/08/01 02:09:54;;;;;;;;;;;;;;;23.53;65.45;98407.13;1873395;76;20097;-64
2021/08/01 02:12:33;;;;;;;;;;;;;;;23.58;65.24;98407.75;1873352;76;20102;-65
2021/08/01 02:15:13;;;;;;;;;;;;;;;23.66;65.20;98404.72;1873225;76;20351;-62
2021/08/01 02:18:00;;;;;;;;;;;;;;;23.65;65.37;98401.71;1892760;76;20199;-61
2021/08/01 02:20:55;;;;;;;;;;;;;;;23.64;65.55;98406.13;1873413;76;20212;-60
2021/08/01 02:23:51;;;;;;;;;;;;;;;23.59;65.68;98405.05;1873408;76;20101;-64
2021/08/01 02:26:26;;;;;;;;;;;;;;;23.53;66.00;98402.70;1873357;76;20097;-61
2021/08/01 02:29:21;;;;;;;;;;;;;;;23.57;66.04;98399.00;1873482;76;20097;-63
2021/08/01 02:32:16;;;;;;;;;;;;;;;23.64;65.98;98401.34;1873387;76;20347;-63
2021/08/01 02:34:50;;;;;;;;;;;;;;;23.70;65.83;98401.02;1892721;76;20203;-64
2021/08/01 02:37:25;;;;;;;;;;;;;;;23.80;65.75;98389.09;1892718;76;20175;-63
2021/08/01 02:40:01;;;;;;;;;;;;;;;24.02;65.23;98392.78;1873352;76;20226;-62
2021/08/01 02:42:36;;;;;;;;;;;;;;;24.17;65.01;98400.31;1873353;76;20347;-63
2021/08/01 02:45:11;;;;;;;;;;;;;;;24.30;64.67;98409.73;1873419;76;20208;-62
2021/08/01 02:47:49;;;;;;;;;;;;;;;24.39;64.33;98407.45;1892722;76;20097;-64
2021/08/01 02:50:25;;;;;;;;;;;;;;;24.46;64.04;98415.45;1892765;76;20215;-72
2021/08/01 02:53:02;;;;;;;;;;;;;;;24.52;64.05;98408.14;1873418;76;20212;-64
2021/08/01 02:55:38;;;;;;;;;;;;;;;24.61;63.92;98409.81;1873410;76;20350;-61
2021/08/01 02:58:14;;;;;;;;;;;;;;;24.62;64.00;98413.30;1892705;76;20100;-64
2021/08/01 03:00:48;;;;;;;;;;;;;;;24.63;64.02;98410.59;1873446;76;20093;-64
2021/08/01 03:03:23;;;;;;;;;;;;;;;24.67;63.92;98408.62;1892825;76;20203;-59
2021/08/01 03:06:00;;;;;;;;;;;;;;;24.67;63.83;98409.94;1873210;76;20098;-64
2021/08/01 03:08:35;;;;;;;;;;;;;;;24.62;63.92;98415.94;1892723;76;20452;-63
2021/08/01 03:11:12;;;;;;;;;;;;;;;24.57;64.02;98420.14;1873383;76;20354;-65
2021/08/01 03:13:53;;;;;;;;;;;;;;;24.47;64.24;98422.90;1872552;76;20097;-60
2021/08/01 03:16:28;;;;;;;;;;;;;;;24.36;64.67;98419.50;1892739;76;20203;-69
2021/08/01 03:19:02;;;;;;;;;;;;;;;24.27;65.07;98423.94;1873334;76;20094;-72
2021/08/01 03:21:44;;;;;;;;;;;;;;;24.22;65.34;98423.33;1892675;76;20382;-62
2021/08/01 03:24:19;;;;;;;;;;;;;;;24.26;65.47;98426.20;1892719;76;20097;-64
2021/08/01 03:26:53;;;;;;;;;;;;;;;24.31;65.46;98430.77;1873402;76;20212;-64
2021/08/01 03:29:28;;;;;;;;;;;;;;;24.43;65.43;98432.74;1873440;76;20204;-66
2021/08/01 03:32:04;;;;;;;;;;;;;;;24.51;65.35;98439.43;1873244;76;20102;-65
2021/08/01 03:34:39;;;;;;;;;;;;;;;24.55;65.19;98434.35;1892832;76;20204;-63
2021/08/01 03:37:13;;;;;;;;;;;;;;;24.61;65.07;98441.48;1892787;76;20203;-60
2021/08/01 03:39:48;;;;;;;;;;;;;;;24.67;64.90;98453.00;1873331;76;20097;-61
2021/08/01 03:42:23;;;;;;;;;;;;;;;24.68;64.86;98452.08;1892707;76;20357;-62
2021/08/01 03:44:59;;;;;;;;;;;;;;;24.69;64.89;98451.14;1873264;76;20102;-63
2021/08/01 03:47:33;;;;;;;;;;;;;;;24.73;64.79;98455.80;1892750;76;20093;-62
2021/08/01 03:50:27;;;;;;;;;;;;;;;24.71;64.81;98443.14;1885939;75;20505;-62
2021/08/01 03:53:02;;;;;;;;;;;;;;;24.73;64.89;98445.68;1873328;76;20101;-65
2021/08/01 03:55:37;;;;;;;;;;;;;;;24.75;64.90;98451.26;1873431;76;20208;-62
2021/08/01 03:58:11;;;;;;;;;;;;;;;24.83;64.87;98453.03;1873451;76;20208;-62
2021/08/01 04:00:47;;;;;;;;;;;;;;;24.90;64.70;98458.80;1873383;76;20097;-59
2021/08/01 04:03:23;;;;;;;;;;;;;;;25.01;64.43;98466.11;1873235;76;20102;-59
2021/08/01 04:05:58;;;;;;;;;;;;;;;25.12;64.09;98468.55;1892710;76;20101;-62
2021/08/01 04:08:34;;;;;;;;;;;;;;;25.26;63.71;98467.78;1892740;76;20207;-61
2021/08/01 04:11:08;;;;;;;;;;;;;;;25.34;63.45;98464.26;1873439;76;20212;-60
2021/08/01 04:13:43;;;;;;;;;;;;;;;25.38;63.27;98462.75;1892744;76;20302;-62
2021/08/01 04:16:18;;;;;;;;;;;;;;;25.37;63.39;98465.88;1873299;76;20148;-60
2021/08/01 04:18:55;;;;;;;;;;;;;;;25.29;63.73;98466.31;1892727;76;20208;-61
2021/08/01 04:21:30;;;;;;;;;;;;;;;25.23;64.41;98464.00;1873360;76;20098;-59
2021/08/01 04:24:11;;;;;;;;;;;;;;;25.16;64.41;98462.64;1872553;76;20204;-68
2021/08/01 04:27:05;;;;;;;;;;;;;;;25.10;64.46;98457.21;1892754;76;20207;-67
2021/08/01 04:29:40;;;;;;;;;;;;;;;25.09;64.46;98462.60;1892720;76;20093;-67
2021/08/01 04:32:14;;;;;;;;;;;;;;;25.10;64.33;98464.29;1873429;76;20564;-61
2021/08/01 04:34:49;;;;;;;;;;;;;;;25.15;64.22;98459.59;1873448;76;20208;-62
2021/08/01 04:37:23;;;;;;;;;;;;;;;25.19;64.01;98466.90;1873467;76;20098;-62
2021/08/01 04:39:58;;;;;;;;;;;;;;;25.12;64.32;98462.42;1873475;76;20205;-61
2021/08/01 04:42:32;;;;;;;;;;;;;;;25.08;64.87;98465.69;1873532;76;20450;-61
2021/08/01 04:45:07;;;;;;;;;;;;;;;25.03;64.79;98461.61;1873421;76;20454;-61
2021/08/01 04:47:42;;;;;;;;;;;;;;;25.10;65.02;98468.25;1892746;76;20092;-63
2021/08/01 04:50:17;;;;;;;;;;;;;;;25.18;65.24;98466.53;1873378;76;20180;-62
2021/08/01 04:52:53;;;;;;;;;;;;;;;25.19;65.10;98464.26;1892841;76;20096;-61
2021/08/01 04:55:27;;;;;;;;;;;;;;;25.10;65.37;98465.13;1873551;76;20101;-65
2021/08/01 04:58:03;;;;;;;;;;;;;;;25.13;65.55;98466.75;1860587;76;20381;-66
2021/08/01 05:00:37;;;;;;;;;;;;;;;25.23;65.52;98464.00;1855230;76;20476;-69
2021/08/01 05:03:13;;;;;;;;;;;;;;;25.34;65.05;98457.66;1855780;76;20116;-63
2021/08/01 05:05:48;;;;;;;;;;;;;;;25.42;64.55;98453.73;1856091;76;20377;-64
2021/08/01 05:08:22;;;;;;;;;;;;;;;25.44;64.43;98459.75;1892435;76;20113;-61
2021/08/01 05:11:03;;;;;;;;;;;;;;;25.41;64.38;98460.77;1872547;76;20363;-62
2021/08/01 05:13:43;;;;;;;;;;;;;;;25.43;64.49;98456.73;1872554;76;20473;-63
2021/08/01 05:16:19;;;;;;;;;;;;;;;25.45;64.66;98454.86;1892718;76;20139;-63
2021/08/01 05:18:55;;;;;;;;;;;;;;;25.43;64.76;98448.33;1861091;76;20116;-62
2021/08/01 05:21:38;;;;;;;;;;;;;;;25.45;64.84;98450.42;1865102;76;20273;-61
2021/08/01 05:24:19;;;;;;;;;;;;;;;25.62;64.72;98456.50;1854371;76;20495;-63
2021/08/01 05:26:53;;;;;;;;;;;;;;;25.70;64.49;98447.20;1870647;76;20476;-62
2021/08/01 05:29:28;;;;;;;;;;;;;;;25.83;64.72;98445.16;1857627;76;20287;-66
2021/08/01 05:32:04;;;;;;;;;;;;;;;25.92;64.13;98445.94;1858876;76;20224;-65
2021/08/01 05:34:57;;;;;;;;;;;;;;;26.07;63.57;98448.97;1853207;76;20278;-65
2021/08/01 05:37:32;;;;;;;;;;;;;;;26.39;63.03;98447.49;1861298;76;20228;-63
2021/08/01 05:40:10;;;;;;;;;;;;;;;27.37;60.94;98457.14;1892710;76;20208;-64
2021/08/01 05:42:44;;;;;;;;;;;;;;;29.02;56.81;98461.75;1837795;77;20459;-65
2021/08/01 05:45:19;;;;;;;;;;;;;;;30.69;52.56;98471.72;1873316;76;20128;-63
2021/08/01 05:47:54;;;;;;;;;;;;;;;32.18;48.76;98470.13;1827405;76;20233;-64
2021/08/01 05:50:29;;;;;;;;;;;;;;;33.59;45.29;98480.89;1872769;76;20097;-63
2021/08/01 05:53:24;;;;;;;;;;;;;;;34.88;41.54;98492.85;1892700;76;20211;-63
2021/08/01 05:56:08;;;;;;;;;;;;;;;35.45;40.28;98492.17;1892687;76;20097;-61
2021/08/01 05:58:43;;;;;;;;;;;;;;;36.07;38.53;98494.89;1873280;76;20102;-60
2021/08/01 06:01:37;;;;;;;;;;;;;;;36.58;37.26;98496.44;1868844;76;20232;-63
2021/08/01 06:04:11;;;;;;;;;;;;;;;36.65;37.30;98501.52;1892077;76;20231;-62
2021/08/01 06:06:45;;;;;;;;;;;;;;;37.32;36.35;98501.59;1873041;76;20212;-61
2021/08/01 06:09:20;;;;;;;;;;;;;;;38.13;35.01;98505.41;1873270;76;20208;-64
2021/08/01 06:11:59;;;;;;;;;;;;;;;38.88;34.06;98515.85;1853551;77;20095;-63
2021/08/01 06:14:40;;;;;;;;;;;;;;;39.60;32.29;98517.52;1872450;76;20098;-59
2021/08/01 06:17:15;;;;;;;;;;;;;;;39.74;31.82;98519.42;1873393;76;20209;-62
2021/08/01 06:20:11;;;;;;;;;;;;;;;38.86;32.71;98519.23;1873343;76;20212;-62
2021/08/01 06:23:05;;;;;;;;;;;;;;;38.00;33.57;98518.05;1873215;76;20216;-62
2021/08/01 06:25:41;;;;;;;;;;;;;;;37.54;34.40;98514.46;1873271;76;20481;-61
2021/08/01 06:28:15;;;;;;;;;;;;;;;37.17;35.22;98513.50;1873519;76;20094;-61
2021/08/01 06:30:50;;;;;;;;;;;;;;;36.64;35.75;98517.30;1892704;76;20211;-64
2021/08/01 06:33:24;;;;;;;;;;;;;;;36.49;36.16;98518.38;1873497;76;20208;-61
2021/08/01 06:36:02;;;;;;;;;;;;;;;36.34;36.62;98514.59;1873192;76;20461;-62
2021/08/01 06:38:58;;;;;;;;;;;;;;;36.37;36.46;98525.86;1892711;76;20096;-64
2021/08/01 06:41:33;;;;;;;;;;;;;;;36.35;36.62;98522.48;1837827;77;20207;-64
2021/08/01 06:44:07;;;;;;;;;;;;;;;36.34;36.69;98524.00;1873464;76;20208;-62
2021/08/01 06:46:42;;;;;;;;;;;;;;;36.29;36.83;98520.44;1873415;76;20204;-65
2021/08/01 06:49:19;;;;;;;;;;;;;;;36.53;36.50;98517.55;1892828;76;20203;-61
2021/08/01 06:51:53;;;;;;;;;;;;;;;36.94;35.94;98516.78;1873521;76;20457;-63
2021/08/01 06:54:28;;;;;;;;;;;;;;;37.12;35.79;98522.56;1892840;76;20203;-63
2021/08/01 06:57:03;;;;;;;;;;;;;;;37.75;34.62;98528.78;1873408;76;20343;-62
2021/08/01 06:59:37;;;;;;;;;;;;;;;37.34;35.28;98531.89;1873454;76;20098;-63
2021/08/01 07:02:13;;;;;;;;;;;;;;;37.19;35.58;98527.64;1873437;76;20458;-63
2021/08/01 07:04:48;;;;;;;;;;;;;;;37.02;35.62;98532.59;1892662;76;20101;-62
2021/08/01 07:07:23;;;;;;;;;;;;;;;36.09;37.15;98526.52;1892741;76;20092;-64
2021/08/01 07:09:57;;;;;;;;;;;;;;;35.87;37.77;98523.77;1837892;77;20100;-65
2021/08/01 07:12:32;;;;;;;;;;;;;;;35.48;38.60;98516.52;1873423;76;20262;-62
2021/08/01 07:15:09;;;;;;;;;;;;;;;35.54;38.69;98514.05;1873516;76;20216;-65
2021/08/01 07:17:44;;;;;;;;;;;;;;;35.62;38.64;98516.00;1873263;76;20098;-65
2021/08/01 07:20:30;;;;;;;;;;;;;;;36.12;37.66;98518.64;1892678;76;20148;-64
2021/08/01 07:23:06;;;;;;;;;;;;;;;36.24;37.47;98514.19;1873424;76;20205;-64
2021/08/01 07:25:40;;;;;;;;;;;;;;;36.33;37.50;98517.77;1892724;76;20155;-63
2021/08/01 07:28:15;;;;;;;;;;;;;;;35.71;38.15;98514.25;1873514;76;20101;-60
2021/08/01 07:30:51;;;;;;;;;;;;;;;35.57;38.73;98507.06;1873390;76;20350;-65
2021/08/01 07:33:26;;;;;;;;;;;;;;;35.49;38.92;98515.01;1873432;76;20200;-64
2021/08/01 07:36:01;;;;;;;;;;;;;;;35.10;39.64;98511.25;1892920;76;20097;-64
2021/08/01 07:38:36;;;;;;;;;;;;;;;34.32;41.13;98498.62;1873407;76;20208;-64
2021/08/01 07:41:30;;;;;;;;;;;;;;;33.67;42.48;98493.06;1837701;77;20099;-60
2021/08/01 07:44:05;;;;;;;;;;;;;;;33.77;42.48;98495.25;1892700;76;20342;-62
2021/08/01 07:46:58;;;;;;;;;;;;;;;34.49;41.33;98499.70;1873326;76;20263;-66
2021/08/01 07:49:33;;;;;;;;;;;;;;;34.92;40.49;98493.75;1873409;76;20208;-64
2021/08/01 07:52:07;;;;;;;;;;;;;;;35.74;39.26;98499.17;1873407;76;20212;-64
2021/08/01 07:54:42;;;;;;;;;;;;;;;36.33;37.84;98498.95;1873417;76;20215;-64
2021/08/01 07:57:30;;;;;;;;;;;;;;;36.21;37.81;98498.39;1873537;76;20097;-63
2021/08/01 08:00:25;;;;;;;;;;;;;;;35.82;38.76;98509.97;1873191;76;20355;-64
2021/08/01 08:02:59;;;;;;;;;;;;;;;35.88;39.02;98503.16;1873432;76;20212;-65
2021/08/01 08:05:34;;;;;;;;;;;;;;;35.76;38.77;98499.36;1873433;76;20454;-63
2021/08/01 08:08:09;;;;;;;;;;;;;;;35.72;38.92;98511.89;1873345;76;20212;-66
2021/08/01 08:10:43;;;;;;;;;;;;;;;34.87;40.56;98497.88;1892676;76;20207;-64
2021/08/01 08:13:19;;;;;;;;;;;;;;;34.19;41.80;98505.63;1892741;76;20092;-65
2021/08/01 08:15:57;;;;;;;;;;;;;;;33.43;43.25;98503.67;1892704;76;20445;-64
2021/08/01 08:18:33;;;;;;;;;;;;;;;33.04;44.38;98502.24;1873203;76;20090;-62
2021/08/01 08:21:28;;;;;;;;;;;;;;;32.65;45.24;98499.92;1873327;76;20097;-64
2021/08/01 08:24:04;;;;;;;;;;;;;;;32.99;44.91;98496.43;1873281;76;20097;-62
2021/08/01 08:26:59;;;;;;;;;;;;;;;33.36;44.12;98498.52;1873377;76;20208;-62
2021/08/01 08:29:33;;;;;;;;;;;;;;;32.98;44.57;98501.94;1892745;76;20207;-65
2021/08/01 08:32:08;;;;;;;;;;;;;;;32.32;45.99;98501.00;1892839;76;20354;-62
2021/08/01 08:34:43;;;;;;;;;;;;;;;32.41;46.30;98495.72;1873267;76;20254;-65
2021/08/01 08:37:18;;;;;;;;;;;;;;;33.26;44.75;98489.64;1873445;76;20446;-61
2021/08/01 08:39:53;;;;;;;;;;;;;;;33.22;44.62;98484.20;1873444;76;20094;-64
2021/08/01 08:42:27;;;;;;;;;;;;;;;33.05;44.73;98491.92;1892724;76;20211;-60
2021/08/01 08:45:04;;;;;;;;;;;;;;;32.80;45.37;98495.05;1873347;76;20098;-64
2021/08/01 08:47:59;;;;;;;;;;;;;;;33.21;44.83;98494.55;1873362;76;20212;-63
2021/08/01 08:50:37;;;;;;;;;;;;;;;33.95;43.59;98492.69;1873240;76;20097;-64
2021/08/01 08:53:12;;;;;;;;;;;;;;;34.73;41.92;98496.05;1873356;76;20204;-63
2021/08/01 08:56:08;;;;;;;;;;;;;;;35.29;40.77;98504.06;1873201;76;20097;-66
2021/08/01 08:58:45;;;;;;;;;;;;;;;35.83;39.98;98501.77;1873409;76;20458;-65
2021/08/01 09:01:25;;;;;;;;;;;;;;;35.38;40.35;98500.48;1872541;76;20216;-64
2021/08/01 09:04:01;;;;;;;;;;;;;;;34.08;42.75;98508.48;1892733;76;20093;-65
2021/08/01 09:06:36;;;;;;;;;;;;;;;33.00;45.14;98506.16;1873434;76;20094;-64
2021/08/01 09:09:13;;;;;;;;;;;;;;;32.27;46.60;98507.22;1873353;76;20098;-65
2021/08/01 09:11:50;;;;;;;;;;;;;;;31.88;47.98;98501.58;1873314;76;20188;-61
2021/08/01 09:14:45;;;;;;;;;;;;;;;31.59;48.96;98503.54;1881686;75;20482;-63
2021/08/01 09:17:35;;;;;;;;;;;;;;;31.45;49.59;98486.52;1871616;76;20388;-62
2021/08/01 09:20:30;;;;;;;;;;;;;;;31.30;50.09;98494.77;1869701;76;20475;-65
2021/08/01 09:23:25;;;;;;;;;;;;;;;31.42;50.21;98506.25;1858803;76;20227;-66
2021/08/01 09:26:03;;;;;;;;;;;;;;;31.25;50.76;98506.30;1869740;76;20370;-64
2021/08/01 09:28:38;;;;;;;;;;;;;;;31.23;50.54;98497.56;1875118;76;20115;-61
2021/08/01 09:31:32;;;;;;;;;;;;;;;31.22;50.87;98490.55;1856296;76;20119;-62
2021/08/01 09:34:28;;;;;;;;;;;;;;;31.16;50.88;98487.03;1892672;76;20215;-64
2021/08/01 09:37:34;;;;;;;;;;;;;;;31.04;50.98;98490.70;1851454;76;20381;-62
2021/08/01 09:40:12;;;;;;;;;;;;;;;30.87;51.49;98486.74;1868313;76;20286;-65
2021/08/01 09:43:11;;;;;;;;;;;;;;;30.57;52.13;98509.48;1858455;76;20121;-60
2021/08/01 09:45:47;;;;;;;;;;;;;;;30.36;52.23;98504.03;1869676;76;20474;-62
2021/08/01 09:48:21;;;;;;;;;;;;;;;30.23;52.19;98501.93;1852744;76;20560;-61
2021/08/01 09:51:17;;;;;;;;;;;;;;;30.09;52.38;98502.97;1857654;76;20120;-59
2021/08/01 09:53:56;;;;;;;;;;;;;;;29.72;53.89;98503.61;1857254;76;20116;-68
2021/08/01 09:56:30;;;;;;;;;;;;;;;29.43;55.91;98505.25;1865554;76;20230;-63
2021/08/01 09:59:19;;;;;;;;;;;;;;;29.21;55.45;98495.36;1857877;76;20231;-58
2021/08/01 10:01:57;;;;;;;;;;;;;;;29.26;55.37;98493.67;1856792;76;20345;-61
2021/08/01 10:04:52;;;;;;;;;;;;;;;29.40;55.32;98500.16;1856646;76;20120;-63
2021/08/01 10:07:47;;;;;;;;;;;;;;;29.18;55.69;98500.42;1856440;76;20222;-63
2021/08/01 10:10:28;;;;;;;;;;;;;;;28.88;56.94;98493.31;1857006;76;20224;-63
2021/08/01 10:13:27;;;;;;;;;;;;;;;28.65;57.34;98474.55;1856470;76;20226;-65
2021/08/01 10:16:22;;;;;;;;;;;;;;;28.54;57.68;98479.27;1872904;76;20360;-63
2021/08/01 10:19:16;;;;;;;;;;;;;;;28.54;58.17;98481.08;1855564;76;20116;-63
2021/08/01 10:22:10;;;;;;;;;;;;;;;28.50;58.64;98485.77;1855728;76;20116;-63
2021/08/01 10:24:55;;;;;;;;;;;;;;;28.40;58.81;98470.58;1870927;76;20227;-64
2021/08/01 10:27:54;;;;;;;;;;;;;;;28.41;59.06;98463.81;1856119;76;20159;-62
2021/08/01 10:30:50;;;;;;;;;;;;;;;28.34;60.08;98484.64;1850874;76;20230;-68
2021/08/01 10:33:47;;;;;;;;;;;;;;;28.22;60.78;98475.36;1857779;76;20116;-61
2021/08/01 10:36:48;;;;;;;;;;;;;;;28.23;61.11;98471.26;1854293;76;20119;-63
2021/08/01 10:39:24;;;;;;;;;;;;;;;28.26;60.96;98473.69;1868868;76;20117;-59
2021/08/01 10:42:01;;;;;;;;;;;;;;;28.41;60.46;98469.61;1892656;76;20191;-61
2021/08/01 10:44:37;;;;;;;;;;;;;;;28.58;60.17;98476.42;1892712;76;20200;-58
2021/08/01 10:47:18;;;;;;;;;;;;;;;28.68;59.88;98477.47;1872568;76;20212;-61
2021/08/01 10:49:53;;;;;;;;;;;;;;;28.72;59.80;98481.09;1872851;76;20477;-61
2021/08/01 10:52:35;;;;;;;;;;;;;;;28.76;59.76;98479.94;1851232;76;20288;-58
2021/08/01 10:55:22;;;;;;;;;;;;;;;28.84;59.77;98489.16;1847263;76;20124;-59
2021/08/01 10:58:11;;;;;;;;;;;;;;;28.87;59.77;98491.59;1872527;76;20209;-58
2021/08/01 11:01:03;;;;;;;;;;;;;;;28.89;59.94;98487.03;1871731;76;20354;-62
2021/08/01 11:03:39;;;;;;;;;;;;;;;28.90;59.98;98487.38;1892742;76;20207;-60
2021/08/01 11:06:37;;;;;;;;;;;;;;;28.95;60.20;98483.47;1892682;76;20097;-59
2021/08/01 11:09:13;;;;;;;;;;;;;;;28.98;60.48;98486.38;1892644;76;20159;-52
2021/08/01 11:12:07;;;;;;;;;;;;;;;28.93;60.85;98481.88;1877545;76;20223;-58
2021/08/01 11:14:50;;;;;;;;;;;;;;;28.87;60.40;98488.94;1865785;76;20362;-57
2021/08/01 11:17:49;;;;;;;;;;;;;;;28.91;60.26;98477.15;1873364;76;20098;-63
2021/08/01 11:21:04;;;;;;;;;;;;;;;28.75;60.32;98466.75;1876380;75;20997;-61
2021/08/01 11:23:53;;;;;;;;;;;;;;;28.66;60.38;98451.02;1862311;76;20225;-59
2021/08/01 11:27:08;;;;;;;;;;;;;;;28.64;60.86;98454.25;1858490;76;20235;-61
2021/08/01 11:30:02;;;;;;;;;;;;;;;28.65;60.75;98452.44;1855231;76;20224;-61
2021/08/01 11:32:55;;;;;;;;;;;;;;;28.67;60.72;98459.34;1824368;77;20115;-59
2021/08/01 11:35:52;;;;;;;;;;;;;;;28.66;60.66;98453.67;1892399;76;20207;-61
2021/08/01 11:38:55;;;;;;;;;;;;;;;28.61;60.91;98434.56;1892230;76;20101;-59
2021/08/01 11:41:56;;;;;;;;;;;;;;;28.58;60.93;98415.36;1853977;76;20116;-61
2021/08/01 11:44:59;;;;;;;;;;;;;;;28.56;60.85;98419.44;1857938;76;20232;-60
2021/08/01 11:47:52;;;;;;;;;;;;;;;28.57;61.40;98414.48;1852330;76;20220;-63
2021/08/01 11:50:28;;;;;;;;;;;;;;;28.55;61.57;98433.69;1859945;76;20117;-60
2021/08/01 11:53:22;;;;;;;;;;;;;;;28.57;61.99;98437.05;1865503;76;20222;-64
2021/08/01 11:56:05;;;;;;;;;;;;;;;28.58;61.75;98433.46;1871515;76;20229;-62
2021/08/01 11:58:59;;;;;;;;;;;;;;;28.62;61.55;98444.22;1840582;76;20285;-59
2021/08/01 12:01:59;;;;;;;;;;;;;;;28.70;61.71;98457.81;1860565;76;20162;-61
2021/08/01 12:04:34;;;;;;;;;;;;;;;28.71;61.87;98467.47;1856591;76;20238;-60
2021/08/01 12:07:48;;;;;;;;;;;;;;;28.70;62.59;98459.14;1858312;76;20117;-58
2021/08/01 12:10:25;;;;;;;;;;;;;;;28.82;62.28;98468.50;1857810;76;20116;-63
2021/08/01 12:13:25;;;;;;;;;;;;;;;29.10;61.68;98470.88;1862762;76;20223;-61
2021/08/01 12:16:18;;;;;;;;;;;;;;;29.52;60.87;98467.35;1872564;76;20098;-61
2021/08/01 12:19:18;;;;;;;;;;;;;;;29.88;59.91;98458.91;1873391;76;20453;-62
2021/08/01 12:22:20;;;;;;;;;;;;;;;29.98;59.09;98449.25;1873548;76;20200;-58
2021/08/01 12:25:14;;;;;;;;;;;;;;;30.04;58.60;98443.45;1873375;76;20208;-58
2021/08/01 12:27:49;;;;;;;;;;;;;;;30.15;58.58;98448.42;1872207;76;20093;-62
2021/08/01 12:30:24;;;;;;;;;;;;;;;30.48;57.98;98448.94;1873321;76;20264;-61
2021/08/01 12:33:05;;;;;;;;;;;;;;;30.92;57.23;98440.09;1852971;76;20116;-62
2021/08/01 12:35:40;;;;;;;;;;;;;;;31.29;55.48;98442.39;1859537;76;20127;-60
2021/08/01 12:38:16;;;;;;;;;;;;;;;31.41;55.15;98446.40;1857436;76;20117;-60
2021/08/01 12:41:12;;;;;;;;;;;;;;;31.41;55.02;98447.73;1872969;76;20101;-62
2021/08/01 12:43:47;;;;;;;;;;;;;;;31.39;54.60;98451.84;1856648;76;20219;-62
2021/08/01 12:46:41;;;;;;;;;;;;;;;31.41;54.51;98451.73;1864854;76;20178;-62
2021/08/01 12:49:23;;;;;;;;;;;;;;;31.43;54.24;98457.80;1852551;76;20559;-64
2021/08/01 12:52:24;;;;;;;;;;;;;;;31.41;54.43;98461.06;1856289;76;20137;-62
2021/08/01 12:55:09;;;;;;;;;;;;;;;31.43;54.85;98465.30;1872560;76;20216;-63
2021/08/01 12:58:11;;;;;;;;;;;;;;;31.40;54.60;98460.69;1889584;76;20204;-60
2021/08/01 13:01:09;;;;;;;;;;;;;;;31.29;54.94;98458.88;1854993;76;20487;-60
2021/08/01 13:03:54;;;;;;;;;;;;;;;31.24;55.31;98464.59;1854978;76;20115;-60
2021/08/01 13:06:27;;;;;;;;;;;;;;;31.18;55.71;98457.11;1845809;76;20166;-61
2021/08/01 13:09:21;;;;;;;;;;;;;;;31.07;55.58;98452.66;1872041;76;20279;-59
2021/08/01 13:11:56;;;;;;;;;;;;;;;30.97;55.70;98447.72;1873610;76;20212;-61
2021/08/01 13:14:33;;;;;;;;;;;;;;;30.92;56.03;98450.75;1873360;76;20354;-60
2021/08/01 13:17:42;;;;;;;;;;;;;;;30.88;55.98;98443.97;1892695;76;20101;-62
2021/08/01 13:20:36;;;;;;;;;;;;;;;30.88;55.86;98438.64;1873312;76;20098;-61
2021/08/01 13:23:35;;;;;;;;;;;;;;;31.03;55.58;98437.04;1873532;76;20168;-62
2021/08/01 13:26:31;;;;;;;;;;;;;;;31.40;54.66;98438.02;1892724;76;20097;-60
2021/08/01 13:29:15;;;;;;;;;;;;;;;31.60;53.87;98428.35;1873388;76;20450;-60
2021/08/01 13:32:17;;;;;;;;;;;;;;;31.76;53.04;98430.09;1892673;76;20346;-61
2021/08/01 13:35:19;;;;;;;;;;;;;;;32.03;52.77;98429.57;1892691;76;20207;-58
2021/08/01 13:38:05;;;;;;;;;;;;;;;32.14;52.16;98425.50;1872550;76;20208;-62
2021/08/01 13:40:54;;;;;;;;;;;;;;;32.27;51.61;98424.44;1873550;76;20446;-62
2021/08/01 13:43:28;;;;;;;;;;;;;;;32.37;51.17;98426.66;1892739;76;20207;-61
2021/08/01 13:46:16;;;;;;;;;;;;;;;32.36;51.21;98418.28;1872522;76;20212;-60
2021/08/01 13:48:50;;;;;;;;;;;;;;;32.41;50.90;98419.59;1873395;76;20184;-61
2021/08/01 13:51:24;;;;;;;;;;;;;;;32.41;50.90;98419.59;1873417;76;20212;-61
2021/08/01 13:54:00;;;;;;;;;;;;;;;32.41;50.68;98408.03;1873547;76;20097;-60
2021/08/01 13:56:35;;;;;;;;;;;;;;;32.37;50.82;98406.14;1837883;77;20215;-61
2021/08/01 13:59:09;;;;;;;;;;;;;;;32.03;51.56;98404.70;1873488;76;20339;-59
2021/08/01 14:01:50;;;;;;;;;;;;;;;31.65;52.36;98399.00;1892675;76;20211;-61
2021/08/01 14:04:24;;;;;;;;;;;;;;;31.43;53.45;98400.45;1873395;76;20434;-60
2021/08/01 14:07:00;;;;;;;;;;;;;;;31.31;53.81;98401.79;1873272;76;20098;-60